Argusville, North Dakota
Current Conditions -  °F | °C
As of 9:53 AM on Thursday 29 Jan 2015 (Local Time) from KFAR Reporting Station
Light Snow Light Snow  
Wind Chill: -17°   Ceiling: 2900
Heat Index: -7°   Visibility: 9mi
Dew Point: -12°   Wind: 26mph
Humidity: 68%   Direction: 340°NNW
Pressure: 30.43"   Gusts: 36mph
Location:  47.05°N, 96.93°W
Report Text: KFAR 291553Z 34023G31KT 9SM -SN OVC029 M07/M12 A3043 RMK AO2 PK WND 34031/1550 SNB12 SLP321 P0000 T10721122
Loading
Personal Weather Stations






























Interactive Weather Map New forecast layout! Learn more

10-Day Weather Forecast

Advertisements
Track Severe Weather on mobile